Portada
METAR-TAF:

METAR-TAF

Aeropuertos :

Meridian, Misisipi, Estados Unidos

latitud: 32-32-47N, longitud: 088-32-35W, altitud: 96 m

Observación

El informe se hizo hace 36 minutos, a las 06:56 UTC
Viento 8 kt del norte
Temperatura 2°C
Humedad 80%
Presión 1032 hPa
Visibilidad: 16.1 km
Cielo despejado

METAR: KNMM 210656Z AUTO 35008KT 10SM CLR 02/M01 A3048 RMK AO2 SLP333 T00221006

Hora: 01:32 (07:32 UTC)

Pronóstico

Pronóstico válido del 21 a las 07 UTC al 22 a las 07 UTC
Viento 10 kt del norte
Visibilidad: 2112 m
Cielo despejado

TAF: KNMM 2107/2207 36010KT 9999 SKC QNH3042INS AUTOMATED SENSOR MEWTATCH 2107 TIL 2112 T00/2113Z T09/2121Z FN00205

Observaciones y pronósticos meteorológicos de más de 4000 aeropuertos (mensajes METAR y TAF).

Los puntos amarillos y rojos representan las estaciones disponibles.

Ponga el ratón en el punto deseado para ver el nombre de la estación.

Haga clic para ver las observaciones y los pronósticos meteorológicos.

Para cambiar el mapa : haga clic en los botones verdes con una cruz de color negro para hacer un zoom, en el botón verde con un guión para alejar o en las flechas verdes para mapas adyacentes.


METAR-TAF: